Time;durP1;ratioP1;P1;durP2;ratioP2;P2;SDS_P1;SDS_P2;PMS_P1;PMS_P2;Temp;Humidity;BMP_temperature;BMP_pressure;BME280_temperature;BME280_humidity;BME280_pressure;Samples;Min_cycle;Max_cycle;Signal;HPM_P1;HPM_P2
2021/12/25 00:00:31;;;;;;;9.30;7.78;;;;;;;1.88;86.96;97820.78;6161263;23;20005;-91
2021/12/25 00:02:56;;;;;;;13.10;8.80;;;;;;;2.31;87.12;97885.72;6160437;23;20031;-92
2021/12/25 00:05:22;;;;;;;9.43;7.70;;;;;;;2.10;87.23;97855.34;6136074;23;20417;-93
2021/12/25 00:07:47;;;;;;;11.45;9.07;;;;;;;2.07;87.08;97866.34;6160682;23;20001;-90
2021/12/25 00:10:15;;;;;;;12.52;8.52;;;;;;;2.03;87.01;97860.69;6185619;23;20001;-91
2021/12/25 00:12:41;;;;;;;8.95;8.02;;;;;;;2.24;87.09;97901.59;6160729;23;20001;-93
2021/12/25 00:15:07;;;;;;;10.85;8.60;;;;;;;2.01;87.03;97865.38;6185684;23;20004;-92
2021/12/25 00:17:35;;;;;;;10.95;9.07;;;;;;;1.74;87.28;97818.50;6186123;23;20005;-93
2021/12/25 00:20:01;;;;;;;10.18;7.88;;;;;;;1.98;87.14;97862.38;6186088;23;20012;-93
2021/12/25 00:22:27;;;;;;;8.82;7.72;;;;;;;1.76;86.92;97824.34;6160802;23;20001;-92
2021/12/25 00:24:52;;;;;;;8.98;7.40;;;;;;;2.03;86.87;97867.81;6160786;23;20084;-90
2021/12/25 00:34:48;;;;;;;9.68;7.07;;;;;;;2.19;86.80;97917.22;6160635;23;20005;-93
2021/12/25 00:37:14;;;;;;;9.10;6.90;;;;;;;1.73;86.58;97844.00;6161226;23;20487;-90
2021/12/25 00:39:43;;;;;;;11.20;7.30;;;;;;;1.91;86.64;97872.16;6161466;23;20009;-93
2021/12/25 00:42:09;;;;;;;7.32;6.57;;;;;;;1.75;86.64;97849.06;6161276;23;20001;-95
2021/12/25 00:44:34;;;;;;;8.02;5.70;;;;;;;2.21;86.73;97923.06;6185190;23;20109;-92
2021/12/25 00:47:00;;;;;;;8.52;6.55;;;;;;;1.88;86.57;97875.25;6160640;23;20013;-91
2021/12/25 00:49:26;;;;;;;10.15;6.50;;;;;;;1.98;86.73;97884.25;6161508;23;20009;-93
2021/12/25 00:51:52;;;;;;;6.38;5.68;;;;;;;1.72;86.43;97852.09;6161276;23;20004;-94
2021/12/25 00:54:18;;;;;;;7.43;6.07;;;;;;;1.71;86.76;97853.94;6161534;23;20036;-94
2021/12/25 00:56:46;;;;;;;8.05;5.75;;;;;;;2.11;86.73;97920.13;6185870;23;20001;-93
2021/12/25 00:59:11;;;;;;;8.68;6.35;;;;;;;1.72;86.86;97858.19;6161546;23;20446;-93
2021/12/25 01:01:37;;;;;;;8.10;6.53;;;;;;;1.77;86.33;97873.31;6162336;23;20085;-94
2021/12/25 01:04:06;;;;;;;8.20;6.10;;;;;;;2.14;86.36;97936.28;6162426;23;20376;-93
2021/12/25 01:06:32;;;;;;;7.63;5.22;;;;;;;2.04;86.79;97914.94;6161535;23;20121;-95
2021/12/25 01:08:57;;;;;;;7.53;5.95;;;;;;;1.81;87.04;97885.81;6186464;23;20429;-95
2021/12/25 01:11:25;;;;;;;10.32;6.15;;;;;;;1.71;86.69;97866.25;6137747;23;20112;-93
2021/12/25 01:13:58;;;;;;;7.95;6.13;;;;;;;2.13;86.72;97941.78;6162361;23;20548;-94
2021/12/25 01:37:22;;;;;;;6.60;4.35;;;;;;;1.62;87.12;97875.47;6197195;23;20012;-92
2021/12/25 01:47:44;;;;;;;5.57;5.07;;;;;;;2.06;86.94;97969.97;6186772;23;20015;-93
2021/12/25 01:50:12;;;;;;;5.35;4.82;;;;;;;1.61;87.22;97903.59;6185558;23;20448;-92
2021/12/25 01:52:38;;;;;;;4.97;4.55;;;;;;;2.01;86.76;97973.25;6185236;23;20338;-91
2021/12/25 01:55:08;;;;;;;6.28;5.35;;;;;;;1.86;86.89;97927.22;6159856;23;20011;-92
2021/12/25 01:57:34;;;;;;;6.13;4.95;;;;;;;1.66;86.66;97889.78;6159937;23;20088;-92
2021/12/25 02:00:03;;;;;;;7.40;5.00;;;;;;;1.62;87.11;97893.88;6185011;23;20005;-92
2021/12/25 02:02:28;;;;;;;6.88;4.30;;;;;;;2.08;86.68;97976.63;6160591;23;20028;-94
2021/12/25 02:04:54;;;;;;;5.47;4.93;;;;;;;1.77;86.57;97931.97;6160789;23;20005;-92
2021/12/25 02:07:23;;;;;;;4.80;4.15;;;;;;;1.79;87.31;97939.66;6160138;23;20001;-92
2021/12/25 02:09:48;;;;;;;7.20;4.68;;;;;;;1.70;86.92;97919.91;6185186;23;20087;-92
2021/12/25 02:12:15;;;;;;;6.22;4.55;;;;;;;1.82;86.97;97940.03;6161084;23;20009;-92
2021/12/25 02:14:43;;;;;;;7.30;5.00;;;;;;;2.00;86.82;97968.22;6160432;23;20210;-90
2021/12/25 02:19:52;;;;;;;6.18;5.57;;;;;;;1.93;87.01;97944.59;6196572;23;20324;-92
2021/12/25 02:22:19;;;;;;;5.75;5.20;;;;;;;1.86;86.61;97927.22;6184834;23;20083;-92
2021/12/25 02:24:45;;;;;;;5.95;4.90;;;;;;;2.06;86.91;97980.50;6159906;23;20400;-93
2021/12/25 02:27:20;;;;;;;6.40;4.75;;;;;;;1.63;86.77;97906.00;6160340;23;20001;-91
2021/12/25 02:29:55;;;;;;;5.57;4.93;;;;;;;1.61;87.06;97908.03;6160139;23;20009;-92
2021/12/25 02:32:27;;;;;;;6.15;4.90;;;;;;;2.05;86.77;97986.81;6185632;23;20004;-92
2021/12/25 02:34:58;;;;;;;4.63;3.78;;;;;;;1.60;86.60;97909.03;6136810;23;20013;-92
2021/12/25 02:37:40;;;;;;;4.55;4.15;;;;;;;1.66;86.86;97916.09;6153001;23;20005;-90
2021/12/25 02:40:17;;;;;;;5.85;4.60;;;;;;;1.78;86.70;97935.41;6183682;23;20092;-92
2021/12/25 02:47:55;;;;;;;4.22;3.92;;;;;;;1.31;86.34;97879.72;6181809;23;20021;-90
2021/12/25 02:50:32;;;;;;;3.60;3.30;;;;;;;2.00;86.63;97973.47;6158174;23;20015;-89
2021/12/25 02:53:00;;;;;;;4.05;3.75;;;;;;;2.00;86.35;97968.22;6153029;23;20337;-87
2021/12/25 02:55:26;;;;;;;4.80;4.40;;;;;;;1.67;86.23;97917.69;6104233;23;20096;-90
2021/12/25 02:57:52;;;;;;;5.70;3.92;;;;;;;1.51;86.53;97919.81;6128585;23;20019;-89
2021/12/25 03:00:27;;;;;;;6.38;4.25;;;;;;;1.24;86.06;97873.75;6104199;23;20009;-89
2021/12/25 03:02:53;;;;;;;4.40;4.00;;;;;;;1.98;86.81;97980.78;6128554;23;20093;-90
2021/12/25 03:05:19;;;;;;;4.53;4.10;;;;;;;2.00;86.52;97984.00;6154965;23;20037;-88
2021/12/25 03:07:45;;;;;;;4.32;3.92;;;;;;;1.41;85.97;97887.16;6128771;23;20005;-87
2021/12/25 03:10:13;;;;;;;4.53;3.97;;;;;;;1.56;86.39;97921.81;6104546;23;20076;-89
2021/12/25 03:15:17;;;;;;;4.15;3.75;;;;;;;1.50;86.59;97918.25;6164888;23;20051;-89
2021/12/25 03:17:43;;;;;;;3.88;3.58;;;;;;;1.18;85.96;97874.56;6154767;23;20002;-88
2021/12/25 03:20:11;;;;;;;4.32;3.78;;;;;;;1.56;86.42;97931.53;6129248;23;20017;-88
2021/12/25 03:22:37;;;;;;;3.63;3.33;;;;;;;1.74;86.47;97944.75;6104110;23;20006;-88
2021/12/25 03:25:13;;;;;;;3.95;3.53;;;;;;;1.49;86.10;97921.06;6128586;23;20021;-89
2021/12/25 03:27:40;;;;;;;4.03;3.63;;;;;;;1.75;86.18;97954.28;6128454;23;20012;-89
2021/12/25 03:30:07;;;;;;;3.58;3.28;;;;;;;1.54;86.38;97918.59;6128283;23;20425;-87
2021/12/25 03:32:33;;;;;;;4.82;3.55;;;;;;;1.43;86.43;97919.28;6128193;23;19994;-90
2021/12/25 03:34:59;;;;;;;3.50;3.20;;;;;;;1.52;86.33;97937.22;6153115;23;20009;-88
2021/12/25 03:37:24;;;;;;;3.58;3.20;;;;;;;1.28;86.55;97895.94;6128407;23;20005;-89
2021/12/25 03:39:49;;;;;;;3.13;2.92;;;;;;;1.23;85.97;97890.50;6104355;23;20034;-86
2021/12/25 03:42:15;;;;;;;3.10;2.90;;;;;;;1.35;85.90;97912.47;6079568;23;20005;-89
2021/12/25 03:44:40;;;;;;;2.63;2.42;;;;;;;1.80;85.17;97986.78;6079866;23;20100;-89
2021/12/25 03:47:23;;;;;;;3.00;2.70;;;;;;;1.19;85.59;97920.88;6103878;23;20092;-90
2021/12/25 03:58:05;;;;;;;3.00;2.72;;;;;;;1.60;85.45;97995.81;6154857;23;20095;-90
2021/12/25 04:00:32;;;;;;;2.60;2.40;;;;;;;1.15;84.92;97926.75;6131056;23;20068;-89
2021/12/25 04:03:02;;;;;;;2.25;2.10;;;;;;;1.23;84.94;97947.50;6106057;23;20041;-90
2021/12/25 04:05:31;;;;;;;2.70;2.50;;;;;;;1.62;85.24;98020.09;6129920;23;20009;-87
2021/12/25 04:08:02;;;;;;;3.65;2.53;;;;;;;1.50;85.89;97991.84;6130049;23;20001;-89
2021/12/25 04:10:32;;;;;;;4.13;2.92;;;;;;;1.38;85.45;97975.13;6129892;23;20341;-87
2021/12/25 04:12:58;;;;;;;2.47;2.28;;;;;;;1.53;85.35;98009.00;6155952;23;20001;-87
2021/12/25 04:15:23;;;;;;;3.40;2.40;;;;;;;1.18;85.36;97955.25;6105865;23;20009;-88
2021/12/25 04:17:48;;;;;;;2.97;2.58;;;;;;;1.03;85.02;97931.84;6129865;23;20013;-88
2021/12/25 04:20:14;;;;;;;2.75;2.22;;;;;;;0.93;85.47;97915.75;6105424;23;20017;-88
2021/12/25 04:22:47;;;;;;;2.05;1.92;;;;;;;1.45;85.27;97996.94;6129520;23;20009;-87
2021/12/25 04:25:18;;;;;;;3.03;2.20;;;;;;;1.76;85.42;98042.66;6107013;23;20013;-87
2021/12/25 04:27:43;;;;;;;2.55;2.35;;;;;;;1.29;85.50;97958.00;6155974;23;20005;-88
2021/12/25 04:30:23;;;;;;;2.10;2.00;;;;;;;0.94;85.17;97904.22;6081575;23;20420;-90
2021/12/25 04:33:28;;;;;;;2.47;2.28;;;;;;;0.92;85.69;97884.47;6108229;23;20001;-89
2021/12/25 05:03:20;;;;;;;2.17;2.00;;;;;;;1.05;85.44;97981.59;6155545;23;20012;-87
2021/12/25 05:05:45;;;;;;;2.10;1.95;;;;;;;1.37;84.85;98034.00;6129581;23;20009;-88
2021/12/25 05:08:13;;;;;;;2.40;2.08;;;;;;;1.25;84.79;98009.38;6104712;23;20006;-89
2021/12/25 05:10:38;;;;;;;1.77;1.67;;;;;;;1.14;84.96;97983.75;6129353;23;20437;-88
2021/12/25 05:13:04;;;;;;;4.18;2.20;;;;;;;0.96;84.71;97973.13;6129476;23;20032;-88
2021/12/25 05:15:29;;;;;;;2.83;2.05;;;;;;;1.48;84.85;98045.66;6104854;23;20040;-89
2021/12/25 05:17:54;;;;;;;2.10;1.90;;;;;;;0.73;84.38;97938.66;6129609;23;20480;-89
2021/12/25 05:20:21;;;;;;;2.25;2.05;;;;;;;0.92;84.49;97968.50;6104954;23;20025;-91
2021/12/25 05:22:46;;;;;;;3.25;2.00;;;;;;;1.28;84.30;98018.66;6105067;23;20060;-90
2021/12/25 05:25:12;;;;;;;2.08;1.90;;;;;;;1.29;83.84;98023.69;6129339;23;20088;-89
2021/12/25 05:27:37;;;;;;;2.30;2.10;;;;;;;1.22;84.26;98024.75;6104700;23;20006;-90
2021/12/25 05:30:04;;;;;;;2.38;1.73;;;;;;;1.48;84.18;98067.50;6104984;23;20013;-86
2021/12/25 05:32:29;;;;;;;1.83;1.73;;;;;;;1.29;83.98;98041.31;6104836;23;20092;-89
2021/12/25 05:34:55;;;;;;;2.65;2.22;;;;;;;1.61;83.99;98084.22;6104914;23;20087;-89
2021/12/25 05:37:20;;;;;;;1.50;1.35;;;;;;;1.14;83.96;98014.47;6129496;23;20052;-87
2021/12/25 05:39:50;;;;;;;2.22;2.00;;;;;;;1.12;84.13;98025.19;6155380;23;20001;-86
2021/12/25 05:42:22;;;;;;;3.38;2.10;;;;;;;1.31;83.57;98060.31;6129035;23;20251;-89
2021/12/25 05:44:48;;;;;;;2.25;1.90;;;;;;;1.55;83.92;98082.44;6155114;23;20025;-89
2021/12/25 05:47:14;;;;;;;2.63;1.85;;;;;;;1.14;83.69;98028.41;6128976;23;20334;-87
2021/12/25 05:49:39;;;;;;;1.95;1.75;;;;;;;1.03;83.47;98015.13;6128412;23;20345;-87
2021/12/25 05:52:05;;;;;;;3.90;2.05;;;;;;;1.43;83.41;98083.09;6129062;23;20001;-86
2021/12/25 05:54:30;;;;;;;2.70;1.63;;;;;;;0.89;83.65;98000.44;6129017;23;20013;-89
2021/12/25 05:56:55;;;;;;;2.60;1.60;;;;;;;1.35;83.42;98072.00;6104317;23;20009;-88
2021/12/25 05:59:21;;;;;;;1.63;1.52;;;;;;;1.57;83.32;98098.81;6104735;23;20310;-89
2021/12/25 06:01:46;;;;;;;2.15;1.92;;;;;;;0.75;83.40;97986.53;6129430;23;20013;-90
2021/12/25 06:04:11;;;;;;;1.48;1.38;;;;;;;0.99;83.16;98034.94;6104418;23;19997;-88
2021/12/25 06:06:37;;;;;;;1.75;1.50;;;;;;;0.77;82.99;97997.63;6104981;23;20016;-89
2021/12/25 06:09:07;;;;;;;1.92;1.52;;;;;;;0.93;83.58;98020.81;6080184;23;20096;-89
2021/12/25 06:11:33;;;;;;;2.45;1.90;;;;;;;1.16;83.37;98070.25;6105139;23;20021;-87
2021/12/25 06:14:09;;;;;;;3.08;1.58;;;;;;;0.91;83.07;98025.50;6153437;23;20448;-88
2021/12/25 06:16:34;;;;;;;2.28;1.67;;;;;;;1.12;83.01;98083.00;6129085;23;20084;-88
2021/12/25 06:19:00;;;;;;;1.73;1.40;;;;;;;0.94;83.20;98063.66;6128778;23;20084;-89
2021/12/25 06:21:25;;;;;;;3.90;1.60;;;;;;;1.13;83.05;98096.97;6128373;23;20065;-88
2021/12/25 06:23:51;;;;;;;1.08;1.08;;;;;;;1.00;82.69;98084.66;6154966;23;19997;-89
2021/12/25 06:26:16;;;;;;;1.95;1.65;;;;;;;0.98;82.87;98084.06;6154966;23;20009;-87
2021/12/25 06:28:42;;;;;;;1.40;1.10;;;;;;;0.96;82.24;98077.41;6128548;23;20333;-87
2021/12/25 06:31:07;;;;;;;1.27;1.15;;;;;;;0.90;82.72;98072.94;6128957;23;20010;-87
2021/12/25 06:33:32;;;;;;;1.10;1.10;;;;;;;0.80;82.58;98073.41;6128814;23;19998;-87
2021/12/25 06:35:58;;;;;;;1.15;1.05;;;;;;;1.09;82.60;98114.16;6155210;23;20029;-87
2021/12/25 06:38:23;;;;;;;1.38;1.27;;;;;;;0.95;82.26;98087.09;6104489;23;20425;-86
2021/12/25 06:40:48;;;;;;;3.00;1.20;;;;;;;0.66;82.30;98048.97;6128661;23;20013;-86
2021/12/25 06:43:14;;;;;;;1.30;1.00;;;;;;;0.83;81.78;98070.34;6104169;23;20368;-86
2021/12/25 06:45:39;;;;;;;1.15;1.05;;;;;;;0.57;81.81;98036.25;6128714;23;20010;-88
2021/12/25 06:48:04;;;;;;;1.17;1.02;;;;;;;0.92;80.99;98089.34;6104027;23;20517;-86
2021/12/25 06:50:30;;;;;;;0.70;0.70;;;;;;;1.27;80.95;98151.88;6128493;23;20059;-88
2021/12/25 06:52:55;;;;;;;4.13;1.40;;;;;;;0.52;80.74;98043.97;6103996;23;20052;-86
2021/12/25 06:55:21;;;;;;;1.65;1.55;;;;;;;1.20;81.21;98171.34;6128723;23;20113;-89
2021/12/25 06:57:55;;;;;;;1.05;1.05;;;;;;;0.43;80.50;98067.00;6128545;23;20010;-89
2021/12/25 07:00:22;;;;;;;1.75;1.13;;;;;;;1.09;80.65;98171.97;6128601;23;20005;-88
2021/12/25 07:02:48;;;;;;;1.77;1.05;;;;;;;0.67;81.57;98112.81;6128531;23;20001;-90
2021/12/25 07:05:14;;;;;;;2.30;1.33;;;;;;;0.63;81.25;98098.47;6128932;23;20017;-89
2021/12/25 07:07:39;;;;;;;0.93;0.90;;;;;;;0.68;81.30;98112.59;6154298;23;20077;-90
2021/12/25 07:10:06;;;;;;;1.98;0.88;;;;;;;0.96;80.75;98159.63;6104130;23;20012;-86
2021/12/25 07:12:36;;;;;;;3.53;1.33;;;;;;;0.60;80.91;98117.25;6128398;23;20010;-88
2021/12/25 07:15:04;;;;;;;1.33;0.80;;;;;;;0.95;80.93;98162.47;6128614;23;20005;-86
2021/12/25 07:17:29;;;;;;;1.45;1.10;;;;;;;0.57;81.15;98115.84;6154468;23;20006;-89
2021/12/25 07:19:54;;;;;;;1.77;1.00;;;;;;;0.50;80.59;98103.72;6080328;23;20056;-89
2021/12/25 07:22:20;;;;;;;2.38;1.30;;;;;;;0.52;80.41;98099.09;6104248;23;20049;-90
2021/12/25 07:24:45;;;;;;;1.45;1.17;;;;;;;0.51;79.75;98108.78;6128476;23;20380;-89
2021/12/25 07:27:10;;;;;;;1.65;1.27;;;;;;;0.65;80.12;98147.16;6154470;23;20067;-87
2021/12/25 07:29:37;;;;;;;2.55;1.20;;;;;;;0.90;80.80;98194.59;6128432;23;20508;-86
2021/12/25 07:32:03;;;;;;;1.92;1.25;;;;;;;0.65;80.33;98144.53;6128623;23;20033;-88
2021/12/25 07:34:28;;;;;;;1.75;1.15;;;;;;;0.63;79.92;98143.09;6130472;23;20489;-88
2021/12/25 07:36:53;;;;;;;1.75;1.10;;;;;;;0.98;79.88;98206.72;6130271;23;20013;-88
2021/12/25 07:39:18;;;;;;;5.28;1.20;;;;;;;0.52;79.87;98149.78;6105824;23;20045;-89
2021/12/25 07:41:47;;;;;;;1.33;0.70;;;;;;;0.33;80.41;98126.16;6130184;23;20350;-89
2021/12/25 07:44:12;;;;;;;3.28;2.00;;;;;;;0.50;79.86;98136.03;6130392;23;20426;-90
2021/12/25 07:46:38;;;;;;;0.80;0.75;;;;;;;0.33;78.78;98132.19;6130346;23;20020;-89
2021/12/25 07:49:04;;;;;;;1.80;1.10;;;;;;;0.25;78.92;98115.81;6105870;23;20013;-89
2021/12/25 07:51:30;;;;;;;0.73;0.73;;;;;;;0.35;79.37;98155.63;6156197;23;20074;-86
2021/12/25 07:53:55;;;;;;;0.80;0.80;;;;;;;0.49;79.57;98178.22;6130180;23;20032;-87
2021/12/25 07:56:25;;;;;;;2.70;0.90;;;;;;;0.67;79.53;98199.47;6106152;23;20002;-89
2021/12/25 07:58:51;;;;;;;2.95;1.00;;;;;;;0.40;79.51;98166.31;6131580;23;20030;-90
2021/12/25 08:01:16;;;;;;;2.17;0.80;;;;;;;0.75;79.65;98217.63;6130609;23;20016;-88
2021/12/25 08:03:41;;;;;;;2.50;0.73;;;;;;;0.69;80.16;98189.56;6156023;23;20421;-87
2021/12/25 08:06:07;;;;;;;1.48;0.80;;;;;;;-0.33;80.22;98039.50;6130127;23;20468;-88
2021/12/25 08:08:32;;;;;;;0.80;0.80;;;;;;;0.86;80.20;98229.34;6129836;23;20017;-88
2021/12/25 08:10:58;;;;;;;0.90;0.88;;;;;;;0.27;79.80;98150.53;6105961;23;20009;-88
2021/12/25 08:13:24;;;;;;;2.05;1.25;;;;;;;0.43;79.79;98171.16;6130515;23;20013;-88
2021/12/25 08:15:49;;;;;;;2.38;0.98;;;;;;;0.39;79.97;98164.72;6105742;23;20385;-89
2021/12/25 08:18:15;;;;;;;3.83;1.42;;;;;;;0.88;79.69;98228.13;6130354;23;20009;-89
2021/12/25 08:20:40;;;;;;;2.42;1.08;;;;;;;0.39;79.75;98154.22;6154363;23;20345;-88
2021/12/25 08:23:07;;;;;;;0.90;0.90;;;;;;;0.13;79.61;98133.19;6129827;23;19998;-89
2021/12/25 08:25:32;;;;;;;1.80;1.15;;;;;;;0.44;79.67;98175.38;6130034;23;20408;-87
2021/12/25 08:27:58;;;;;;;1.38;1.27;;;;;;;0.52;79.68;98207.53;6129737;23;20080;-89
2021/12/25 08:30:26;;;;;;;2.45;1.27;;;;;;;0.34;79.35;98170.56;6130019;23;20013;-87
2021/12/25 08:32:55;;;;;;;2.75;1.40;;;;;;;0.10;79.55;98138.81;6129884;23;20001;-89
2021/12/25 08:35:21;;;;;;;2.83;1.23;;;;;;;0.21;79.57;98149.53;6155973;23;20060;-89
2021/12/25 08:37:47;;;;;;;3.47;1.48;;;;;;;0.37;79.10;98171.97;6105286;23;20013;-89
2021/12/25 08:40:13;;;;;;;5.03;1.52;;;;;;;0.77;79.15;98245.31;6105500;23;20021;-89
2021/12/25 08:42:45;;;;;;;2.22;1.33;;;;;;;-0.03;78.83;98124.69;6129567;23;19994;-88
2021/12/25 08:45:30;;;;;;;5.15;2.15;;;;;;;0.32;79.09;98192.75;6106537;23;20045;-90
2021/12/25 08:47:56;;;;;;;1.45;1.35;;;;;;;0.34;79.15;98201.22;6129754;23;20001;-90
2021/12/25 08:50:21;;;;;;;3.63;1.30;;;;;;;0.53;79.28;98234.56;6129884;23;20011;-88
2021/12/25 08:52:47;;;;;;;1.80;1.23;;;;;;;0.29;78.96;98190.50;6105587;23;21734;-88
2021/12/25 08:55:12;;;;;;;1.58;1.17;;;;;;;0.09;79.69;98168.69;6155985;23;20445;-90
2021/12/25 08:57:37;;;;;;;2.25;1.48;;;;;;;0.04;79.03;98163.22;6129566;23;20048;-87
2021/12/25 09:00:04;;;;;;;2.58;1.30;;;;;;;0.35;79.48;98214.13;6129737;23;20011;-88
2021/12/25 09:02:29;;;;;;;1.38;1.27;;;;;;;0.36;79.44;98221.03;6129765;23;19998;-87
2021/12/25 09:04:55;;;;;;;3.33;1.25;;;;;;;0.62;79.49;98260.44;6105344;23;20032;-89
2021/12/25 09:07:20;;;;;;;2.08;1.48;;;;;;;0.18;79.68;98201.59;6104857;23;20087;-88
2021/12/25 09:09:46;;;;;;;2.30;1.50;;;;;;;0.29;79.38;98196.56;6130200;23;20009;-90
2021/12/25 09:12:14;;;;;;;2.30;1.17;;;;;;;0.26;79.50;98188.31;6130189;23;20006;-89
2021/12/25 09:14:40;;;;;;;2.35;1.27;;;;;;;0.35;78.93;98216.75;6129434;23;20005;-87
2021/12/25 09:17:07;;;;;;;4.25;1.65;;;;;;;-0.06;79.07;98161.78;6153726;23;20010;-85
2021/12/25 09:19:33;;;;;;;3.15;1.38;;;;;;;0.17;78.62;98202.63;6129467;23;20001;-89
2021/12/25 09:21:58;;;;;;;2.33;1.55;;;;;;;0.36;79.11;98239.41;6129842;23;20067;-86
2021/12/25 09:24:25;;;;;;;6.25;1.55;;;;;;;0.03;79.22;98195.69;6153791;23;20032;-89
2021/12/25 09:26:50;;;;;;;1.42;1.25;;;;;;;0.62;78.49;98285.88;6155270;23;20448;-87
2021/12/25 09:29:16;;;;;;;2.35;1.20;;;;;;;-0.04;78.42;98200.91;6155376;23;20001;-89
2021/12/25 09:31:42;;;;;;;3.70;1.40;;;;;;;0.48;78.77;98282.41;6104933;23;20009;-89
2021/12/25 09:34:07;;;;;;;1.58;1.48;;;;;;;0.11;77.98;98221.78;6129661;23;20036;-87
2021/12/25 09:36:34;;;;;;;2.88;1.60;;;;;;;0.13;78.85;98227.63;6129336;23;20001;-89
2021/12/25 09:39:00;;;;;;;1.98;1.30;;;;;;;0.65;78.43;98303.88;6153850;23;20032;-88
2021/12/25 09:41:25;;;;;;;1.38;1.27;;;;;;;0.07;78.78;98217.94;6129425;23;20001;-89
2021/12/25 09:43:51;;;;;;;1.65;1.50;;;;;;;0.14;79.24;98245.78;6128783;23;20005;-90
2021/12/25 09:46:18;;;;;;;1.95;1.05;;;;;;;0.15;78.94;98255.28;6129383;23;20024;-87
2021/12/25 09:48:44;;;;;;;6.13;1.55;;;;;;;0.58;79.35;98314.38;6128745;23;20001;-89
2021/12/25 09:51:10;;;;;;;1.63;1.33;;;;;;;0.18;78.77;98262.75;6155193;23;20005;-88
2021/12/25 09:53:35;;;;;;;1.98;1.63;;;;;;;0.54;78.83;98318.41;6155001;23;20315;-88
2021/12/25 09:56:02;;;;;;;1.40;1.23;;;;;;;0.60;78.78;98324.66;6128927;23;20005;-88
2021/12/25 09:58:28;;;;;;;2.17;1.63;;;;;;;0.00;78.81;98223.16;6129019;23;20028;-88
2021/12/25 10:00:53;;;;;;;2.28;1.33;;;;;;;0.34;78.79;98278.16;6155655;23;20006;-90
2021/12/25 10:03:20;;;;;;;2.00;1.50;;;;;;;0.22;78.92;98263.19;6129007;23;20462;-90
2021/12/25 10:05:48;;;;;;;3.97;1.40;;;;;;;0.12;79.05;98253.03;6129048;23;20020;-91
2021/12/25 10:08:19;;;;;;;1.83;1.70;;;;;;;0.64;78.97;98333.75;6128967;23;20017;-87
2021/12/25 10:10:48;;;;;;;3.13;2.60;;;;;;;0.67;78.82;98331.56;6129303;23;20016;-87
2021/12/25 10:13:29;;;;;;;2.00;1.45;;;;;;;0.08;79.32;98246.59;6129005;23;20041;-90
2021/12/25 10:16:22;;;;;;;3.60;1.60;;;;;;;0.12;79.73;98246.97;6104640;23;20012;-89
2021/12/25 10:18:52;;;;;;;3.50;1.50;;;;;;;0.07;79.86;98228.44;6119708;23;20012;-89
2021/12/25 10:21:32;;;;;;;2.78;1.70;;;;;;;0.71;79.56;98329.34;6105023;23;20349;-90
2021/12/25 10:24:09;;;;;;;2.17;1.67;;;;;;;0.11;79.37;98240.13;6154823;23;20000;-91
2021/12/25 10:26:37;;;;;;;3.20;1.75;;;;;;;0.71;78.88;98326.72;6153562;23;20357;-88
2021/12/25 10:29:16;;;;;;;3.53;1.65;;;;;;;-0.05;79.13;98221.13;6154865;23;20087;-88
2021/12/25 10:31:41;;;;;;;3.05;1.55;;;;;;;0.59;79.33;98304.69;6153782;23;20005;-90
2021/12/25 10:34:22;;;;;;;3.30;1.75;;;;;;;0.03;78.80;98227.16;6129029;23;20068;-88
2021/12/25 10:36:48;;;;;;;2.45;1.50;;;;;;;0.38;78.87;98275.94;6104604;23;20021;-88
2021/12/25 10:39:23;;;;;;;3.20;1.83;;;;;;;0.11;79.21;98240.13;6128784;23;20005;-88
2021/12/25 10:42:11;;;;;;;2.30;1.65;;;;;;;0.48;78.53;98292.13;6129118;23;20010;-89
2021/12/25 10:44:45;;;;;;;3.63;1.77;;;;;;;0.01;78.97;98216.88;6153424;23;20048;-90
2021/12/25 10:47:20;;;;;;;1.42;1.30;;;;;;;0.05;78.76;98230.41;6128864;23;20084;-87
2021/12/25 10:50:08;;;;;;;1.60;1.50;;;;;;;0.17;78.87;98236.72;6128608;23;20064;-87
2021/12/25 10:52:41;;;;;;;2.47;1.63;;;;;;;0.27;78.63;98256.31;6129097;23;20002;-89
2021/12/25 10:55:17;;;;;;;2.60;1.92;;;;;;;0.75;79.01;98334.00;6128921;23;20017;-88
2021/12/25 10:57:56;;;;;;;3.03;1.92;;;;;;;0.14;78.39;98242.34;6104140;23;20013;-89
2021/12/25 11:00:21;;;;;;;2.25;2.05;;;;;;;0.74;79.18;98327.13;6153184;23;20029;-88
2021/12/25 11:02:50;;;;;;;2.50;1.88;;;;;;;0.05;78.97;98206.81;6153086;23;21432;-89
2021/12/25 11:05:26;;;;;;;4.68;2.00;;;;;;;0.48;78.53;98284.25;6128508;23;20075;-88
2021/12/25 11:08:09;;;;;;;2.08;1.90;;;;;;;0.76;78.83;98324.31;6156281;23;20343;-90
2021/12/25 11:10:49;;;;;;;3.65;1.95;;;;;;;0.76;78.55;98326.94;6130541;23;20235;-90
2021/12/25 11:13:20;;;;;;;2.05;1.60;;;;;;;0.63;78.57;98306.69;6155374;23;20005;-90
2021/12/25 11:15:46;;;;;;;2.85;2.17;;;;;;;0.73;78.47;98322.06;6130585;23;20010;-91
2021/12/25 11:18:14;;;;;;;3.40;2.15;;;;;;;0.58;78.73;98289.94;6106196;23;20009;-89
2021/12/25 11:20:42;;;;;;;2.63;2.00;;;;;;;0.78;79.15;98317.03;6106692;23;20006;-91
2021/12/25 11:23:10;;;;;;;1.80;1.50;;;;;;;0.07;78.55;98202.97;6106394;23;20008;-90
2021/12/25 11:25:38;;;;;;;3.78;2.28;;;;;;;0.00;78.36;98202.16;6156977;23;20013;-88
2021/12/25 11:28:07;;;;;;;1.95;1.80;;;;;;;-0.33;78.77;98148.81;6130176;23;20008;-88
2021/12/25 11:30:34;;;;;;;1.30;1.20;;;;;;;0.20;78.73;98216.13;6106591;23;20033;-87
2021/12/25 11:33:00;;;;;;;4.30;2.13;;;;;;;0.81;78.45;98321.09;6106328;23;20002;-90
2021/12/25 11:35:26;;;;;;;3.22;1.80;;;;;;;0.30;78.22;98255.13;6130722;23;20011;-88
2021/12/25 11:37:55;;;;;;;5.78;1.77;;;;;;;0.25;78.51;98233.91;6130502;23;20032;-90
2021/12/25 11:40:24;;;;;;;2.40;1.83;;;;;;;0.79;78.49;98325.75;6155123;23;20001;-90
2021/12/25 11:42:53;;;;;;;4.88;2.10;;;;;;;0.18;78.44;98228.63;6130472;23;20080;-89
2021/12/25 11:45:27;;;;;;;2.42;1.88;;;;;;;-0.05;77.86;98199.31;6155581;23;20037;-87
2021/12/25 11:47:58;;;;;;;1.92;1.60;;;;;;;0.10;77.67;98214.91;6130161;23;20365;-88
2021/12/25 11:50:41;;;;;;;4.13;3.00;;;;;;;0.24;77.85;98248.84;6130602;23;20029;-90
2021/12/25 11:53:18;;;;;;;2.90;1.98;;;;;;;0.71;78.27;98321.47;6130442;23;20001;-90
2021/12/25 11:58:39;;;;;;;2.88;2.05;;;;;;;0.17;77.38;98239.34;6156255;23;20005;-87
2021/12/25 12:01:18;;;;;;;2.53;2.33;;;;;;;0.64;77.65;98331.13;6137167;23;20032;-91
2021/12/25 12:03:47;;;;;;;3.85;2.00;;;;;;;-0.12;77.42;98211.59;6156468;23;19998;-88
2021/12/25 12:06:13;;;;;;;3.35;2.25;;;;;;;-0.01;77.96;98238.06;6106358;23;20104;-88
2021/12/25 12:08:54;;;;;;;8.13;2.40;;;;;;;-0.02;77.80;98233.81;6105642;23;20016;-87
2021/12/25 12:11:22;;;;;;;3.15;2.03;;;;;;;0.44;78.05;98304.81;6155059;23;20012;-87
2021/12/25 12:14:11;;;;;;;1.98;1.70;;;;;;;-0.05;77.84;98247.34;6105885;23;20019;-91
2021/12/25 12:16:39;;;;;;;3.90;2.47;;;;;;;-0.20;77.76;98204.69;6156501;23;20001;-87
2021/12/25 12:19:04;;;;;;;4.13;2.15;;;;;;;0.04;78.18;98255.03;6129522;23;20020;-91
2021/12/25 12:21:35;;;;;;;3.40;2.10;;;;;;;-0.14;78.00;98213.59;6156166;23;20005;-90
2021/12/25 12:27:10;;;;;;;3.55;2.20;;;;;;;0.55;77.93;98316.56;6150605;23;20014;-91
2021/12/25 12:29:39;;;;;;;2.83;2.20;;;;;;;0.40;78.57;98287.84;6130525;23;20006;-88
2021/12/25 12:32:50;;;;;;;4.40;2.17;;;;;;;0.56;77.98;98316.38;6154885;23;20390;-88
2021/12/25 12:35:35;;;;;;;4.35;2.70;;;;;;;0.32;77.83;98284.59;6127318;23;20006;-90
2021/12/25 12:38:39;;;;;;;2.05;1.80;;;;;;;0.59;78.41;98323.84;6129723;23;20002;-90
2021/12/25 12:41:33;;;;;;;3.15;1.77;;;;;;;0.63;77.95;98316.41;6154411;23;20010;-90
2021/12/25 12:44:04;;;;;;;2.13;1.90;;;;;;;0.70;77.95;98330.34;6129456;23;20002;-90
2021/12/25 12:46:47;;;;;;;2.53;1.77;;;;;;;0.69;77.86;98315.59;6154410;23;20439;-88
2021/12/25 12:49:13;;;;;;;2.25;1.95;;;;;;;0.76;77.61;98314.59;6153950;23;20060;-89
2021/12/25 12:51:39;;;;;;;2.45;1.70;;;;;;;-0.02;77.63;98184.00;6156466;23;20072;-87
2021/12/25 12:54:05;;;;;;;2.95;1.85;;;;;;;0.12;77.78;98202.38;6105360;23;20036;-90
2021/12/25 12:56:30;;;;;;;3.40;1.88;;;;;;;0.54;77.81;98276.41;6155443;23;20002;-90
2021/12/25 12:58:57;;;;;;;2.38;1.73;;;;;;;0.66;77.91;98287.09;6081276;23;20096;-88
2021/12/25 13:01:25;;;;;;;2.53;1.85;;;;;;;0.84;77.71;98318.03;6129652;23;19998;-90
2021/12/25 13:04:02;;;;;;;2.50;2.30;;;;;;;0.83;77.29;98319.84;6129746;23;20001;-90
2021/12/25 13:06:31;;;;;;;4.68;1.80;;;;;;;0.85;77.25;98323.13;6130053;23;20013;-89
2021/12/25 13:09:04;;;;;;;3.17;2.13;;;;;;;0.41;76.60;98249.31;6155776;23;20417;-89
2021/12/25 13:11:38;;;;;;;2.30;1.60;;;;;;;0.00;76.47;98187.22;6129979;23;20015;-88
2021/12/25 13:14:05;;;;;;;2.53;2.15;;;;;;;0.28;76.26;98233.53;6107301;23;20430;-90
2021/12/25 13:16:43;;;;;;;6.53;1.98;;;;;;;0.79;76.66;98323.91;6130376;23;20006;-88